Time;durP1;ratioP1;P1;durP2;ratioP2;P2;SDS_P1;SDS_P2;PMS_P1;PMS_P2;Temp;Humidity;BMP_temperature;BMP_pressure;BME280_temperature;BME280_humidity;BME280_pressure;Samples;Min_cycle;Max_cycle;Signal;HPM_P1;HPM_P2
2023/02/24 00:01:23;;;;;;;15.82;9.00;;;;;;;7.16;100.00;100229.41;5035489;28;20048;-63
2023/02/24 00:03:52;;;;;;;18.60;7.72;;;;;;;7.12;100.00;100222.72;5035292;28;20409;-64
2023/02/24 00:06:18;;;;;;;22.77;8.85;;;;;;;7.09;100.00;100217.72;5037108;28;20048;-62
2023/02/24 00:08:44;;;;;;;17.20;7.88;;;;;;;7.22;100.00;100213.09;5036013;28;20298;-62
2023/02/24 00:11:12;;;;;;;16.08;7.72;;;;;;;7.19;100.00;100215.97;5037388;28;20030;-63
2023/02/24 00:13:39;;;;;;;16.77;8.98;;;;;;;7.26;100.00;100211.88;5036281;28;20029;-65
2023/02/24 00:16:05;;;;;;;17.25;9.18;;;;;;;7.21;100.00;100209.63;5036153;28;20048;-65
2023/02/24 00:18:32;;;;;;;15.25;7.68;;;;;;;7.22;100.00;100208.66;5033752;28;20112;-63
2023/02/24 00:21:07;;;;;;;11.88;7.53;;;;;;;7.20;100.00;100202.69;5035239;28;20223;-61
2023/02/24 00:23:34;;;;;;;15.63;8.02;;;;;;;7.17;100.00;100207.38;5030512;28;20057;-61
2023/02/24 00:26:00;;;;;;;16.45;7.65;;;;;;;7.10;100.00;100203.59;5034895;28;20029;-64
2023/02/24 00:28:27;;;;;;;15.10;7.97;;;;;;;7.13;100.00;100203.34;5033021;28;20056;-63
2023/02/24 00:30:54;;;;;;;14.95;8.60;;;;;;;7.24;100.00;100204.09;5032243;28;20320;-63
2023/02/24 00:33:22;;;;;;;15.10;7.13;;;;;;;7.18;100.00;100209.03;5034673;28;20033;-62
2023/02/24 00:35:48;;;;;;;14.10;6.45;;;;;;;7.09;100.00;100199.28;5033869;28;20033;-65
2023/02/24 00:38:14;;;;;;;11.88;6.03;;;;;;;7.10;100.00;100198.31;5033419;28;20056;-65
2023/02/24 00:40:44;;;;;;;11.63;5.15;;;;;;;7.13;100.00;100192.78;5033140;28;20094;-64
2023/02/24 00:43:10;;;;;;;11.27;6.05;;;;;;;7.07;100.00;100188.88;5033447;28;20413;-64
2023/02/24 00:45:38;;;;;;;14.38;6.35;;;;;;;7.12;100.00;100185.84;5033819;28;20029;-63
2023/02/24 00:48:04;;;;;;;11.52;5.90;;;;;;;7.05;100.00;100183.75;5033448;28;20124;-64
2023/02/24 00:50:30;;;;;;;10.90;5.57;;;;;;;6.99;100.00;100184.25;5033592;28;20354;-62
2023/02/24 00:52:56;;;;;;;13.63;5.75;;;;;;;6.96;100.00;100173.97;5033844;28;20037;-63
2023/02/24 00:55:22;;;;;;;9.90;5.25;;;;;;;6.92;100.00;100183.09;5034207;28;20221;-62
2023/02/24 00:57:50;;;;;;;11.18;5.28;;;;;;;7.05;100.00;100175.00;5032122;28;20048;-65
2023/02/24 01:00:18;;;;;;;8.45;3.85;;;;;;;6.90;100.00;100171.03;5029679;28;20494;-63
2023/02/24 01:02:44;;;;;;;7.88;4.40;;;;;;;6.83;100.00;100161.97;5033427;28;20052;-63
2023/02/24 01:05:11;;;;;;;10.07;4.72;;;;;;;6.88;100.00;100159.78;5032313;28;20034;-63
2023/02/24 01:07:37;;;;;;;8.02;4.85;;;;;;;7.07;100.00;100161.72;5033864;28;20096;-62
2023/02/24 01:10:07;;;;;;;10.57;4.43;;;;;;;6.94;100.00;100157.47;5033477;28;20042;-63
2023/02/24 01:12:48;;;;;;;11.23;5.50;;;;;;;6.88;100.00;100151.91;5033748;28;20243;-63
2023/02/24 01:15:15;;;;;;;18.17;6.13;;;;;;;6.83;100.00;100156.72;5031452;28;20415;-63
2023/02/24 01:17:41;;;;;;;15.82;5.45;;;;;;;6.88;100.00;100152.72;5032315;28;20053;-61
2023/02/24 01:20:18;;;;;;;10.52;5.35;;;;;;;6.86;100.00;100156.44;5032732;28;20029;-63
2023/02/24 01:22:53;;;;;;;7.78;4.18;;;;;;;6.81;100.00;100156.00;5033720;28;20124;-63
2023/02/24 01:25:19;;;;;;;13.15;5.57;;;;;;;6.90;100.00;100153.44;5033654;28;20048;-61
2023/02/24 01:27:45;;;;;;;7.82;4.05;;;;;;;6.82;100.00;100149.78;5029476;28;20307;-63
2023/02/24 01:30:14;;;;;;;9.23;5.03;;;;;;;6.80;100.00;100146.44;5032646;28;20492;-63
2023/02/24 01:32:43;;;;;;;9.93;5.00;;;;;;;6.77;100.00;100150.16;5033171;28;20031;-61
2023/02/24 01:35:10;;;;;;;10.85;4.75;;;;;;;6.79;100.00;100147.41;5030943;28;20034;-62
2023/02/24 01:37:36;;;;;;;10.68;5.20;;;;;;;6.86;100.00;100149.41;5033215;28;20041;-61
2023/02/24 01:40:16;;;;;;;9.40;4.75;;;;;;;6.91;100.00;100157.75;5032940;28;20267;-62
2023/02/24 01:42:43;;;;;;;14.07;5.03;;;;;;;6.94;100.00;100154.00;5033634;28;20276;-61
2023/02/24 01:45:15;;;;;;;10.60;4.90;;;;;;;6.88;100.00;100152.72;5032652;28;20036;-63
2023/02/24 01:47:42;;;;;;;9.55;5.35;;;;;;;6.84;100.00;100151.31;5032963;28;20327;-61
2023/02/24 01:50:09;;;;;;;12.15;4.97;;;;;;;6.85;100.00;100147.72;5032534;28;20316;-63
2023/02/24 01:52:36;;;;;;;7.63;5.18;;;;;;;6.95;100.00;100147.78;5033137;28;20038;-64
2023/02/24 01:55:04;;;;;;;9.35;4.10;;;;;;;6.86;100.00;100151.19;5032832;28;20191;-61
2023/02/24 01:57:34;;;;;;;12.68;4.10;;;;;;;6.88;100.00;100152.72;5032907;28;20037;-62
2023/02/24 02:00:11;;;;;;;7.70;4.30;;;;;;;6.90;100.00;100152.59;5031991;28;20363;-61
2023/02/24 02:02:44;;;;;;;12.00;4.78;;;;;;;6.87;100.00;100142.31;5032556;28;20239;-61
2023/02/24 02:05:10;;;;;;;10.30;4.83;;;;;;;6.94;100.00;100143.47;5033106;28;20243;-63
2023/02/24 02:07:38;;;;;;;12.50;5.32;;;;;;;6.92;100.00;100143.63;5032244;28;20049;-62
2023/02/24 02:10:05;;;;;;;10.68;5.47;;;;;;;6.89;100.00;100149.13;5031630;28;20081;-63
2023/02/24 02:12:42;;;;;;;8.52;4.65;;;;;;;6.73;100.00;100146.94;5032350;28;20045;-64
2023/02/24 02:15:12;;;;;;;10.25;4.47;;;;;;;6.88;100.00;100139.56;5032115;28;20309;-62
2023/02/24 02:18:04;;;;;;;11.07;4.60;;;;;;;6.98;100.00;100142.25;5032734;28;20038;-64
2023/02/24 02:21:05;;;;;;;9.85;4.63;;;;;;;6.88;100.00;100138.72;5031629;28;20034;-63
2023/02/24 02:23:52;;;;;;;10.07;4.47;;;;;;;6.85;100.00;100146.88;5005812;28;20069;-63
2023/02/24 02:27:03;;;;;;;13.85;5.38;;;;;;;6.82;100.00;100140.09;5031345;28;20048;-61
2023/02/24 02:29:37;;;;;;;12.45;4.07;;;;;;;6.79;100.00;100137.72;5026127;28;20053;-61
2023/02/24 02:32:36;;;;;;;11.85;4.70;;;;;;;6.75;100.00;100141.56;5032570;28;20076;-63
2023/02/24 02:35:17;;;;;;;10.10;5.15;;;;;;;6.71;100.00;100143.63;5042053;28;20081;-61
2023/02/24 02:38:06;;;;;;;11.90;5.80;;;;;;;6.84;100.00;100140.78;5031342;28;20048;-62
2023/02/24 02:40:51;;;;;;;7.30;4.47;;;;;;;6.77;100.00;100142.25;5031761;28;20037;-65
2023/02/24 02:43:29;;;;;;;8.40;4.75;;;;;;;6.81;100.00;100141.03;5027051;28;20060;-63
2023/02/24 02:46:13;;;;;;;14.15;5.28;;;;;;;6.88;100.00;100138.72;5030432;28;20029;-63
2023/02/24 02:48:57;;;;;;;14.38;6.10;;;;;;;6.83;100.00;100154.06;5029564;28;20045;-63
2023/02/24 02:51:53;;;;;;;14.68;5.10;;;;;;;6.88;100.00;100151.91;5032094;28;20041;-62
2023/02/24 02:54:32;;;;;;;13.90;5.72;;;;;;;6.93;100.00;100157.59;5033126;28;20050;-61
2023/02/24 02:57:06;;;;;;;9.13;4.50;;;;;;;6.84;100.00;100155.75;5035718;28;20045;-62
2023/02/24 02:59:35;;;;;;;12.75;5.00;;;;;;;6.99;100.00;100155.28;5035976;28;20036;-61
2023/02/24 03:02:16;;;;;;;12.07;4.32;;;;;;;7.00;100.00;100156.97;5036438;28;20048;-64
2023/02/24 03:04:51;;;;;;;11.10;4.95;;;;;;;6.91;100.00;100154.28;5037108;28;20044;-63
2023/02/24 03:07:20;;;;;;;12.05;4.10;;;;;;;6.97;100.00;100161.66;5032995;28;20404;-62
2023/02/24 03:09:55;;;;;;;8.35;4.22;;;;;;;7.05;100.00;100154.78;5034611;28;20057;-63
2023/02/24 03:12:23;;;;;;;12.50;5.90;;;;;;;7.00;100.00;100150.88;5035731;28;20104;-62
2023/02/24 03:14:56;;;;;;;16.13;5.70;;;;;;;7.05;100.00;100153.94;5035684;28;20385;-63
2023/02/24 03:17:24;;;;;;;10.88;4.85;;;;;;;7.21;100.00;100148.22;5035552;28;20031;-63
2023/02/24 03:19:59;;;;;;;16.85;5.05;;;;;;;7.18;100.00;100162.47;5036439;28;20037;-61
2023/02/24 03:22:44;;;;;;;8.95;4.32;;;;;;;7.14;100.00;100154.97;5034557;28;20041;-63
2023/02/24 03:25:09;;;;;;;10.95;5.53;;;;;;;7.02;100.00;100146.31;5031887;28;20133;-64
2023/02/24 03:27:57;;;;;;;12.23;4.22;;;;;;;7.11;100.00;100155.22;5036368;28;20495;-63
2023/02/24 03:30:28;;;;;;;10.45;4.80;;;;;;;6.98;100.00;100147.53;5034895;28;20078;-62
2023/02/24 03:33:04;;;;;;;10.48;4.45;;;;;;;6.94;100.00;100139.06;5035293;28;20033;-62
2023/02/24 03:35:40;;;;;;;8.07;3.80;;;;;;;6.89;100.00;100146.50;5034668;28;20316;-64
2023/02/24 03:38:08;;;;;;;11.98;4.35;;;;;;;7.09;100.00;100149.25;5034529;28;20043;-62
2023/02/24 03:40:36;;;;;;;10.27;4.63;;;;;;;6.99;100.00;100141.28;5035511;28;20331;-61
2023/02/24 03:43:25;;;;;;;10.82;4.93;;;;;;;6.91;100.00;100130.56;5035316;28;20040;-61
2023/02/24 03:45:51;;;;;;;10.70;5.18;;;;;;;6.90;100.00;100121.00;5034538;28;20045;-63
2023/02/24 03:48:17;;;;;;;14.18;5.30;;;;;;;7.02;100.00;100127.88;5032909;28;20294;-60
2023/02/24 03:50:44;;;;;;;11.57;4.80;;;;;;;7.03;100.00;100133.00;5033797;28;20041;-61
2023/02/24 03:53:26;;;;;;;11.55;4.72;;;;;;;7.19;100.00;100126.44;5034236;28;20053;-62
2023/02/24 03:56:14;;;;;;;7.47;4.30;;;;;;;7.04;100.00;100124.16;5035024;28;20057;-63
2023/02/24 03:58:58;;;;;;;9.50;5.50;;;;;;;7.07;100.00;100127.47;5033368;28;20052;-61
2023/02/24 04:01:56;;;;;;;11.60;4.82;;;;;;;7.11;100.00;100121.00;5034264;28;20053;-61
2023/02/24 04:04:35;;;;;;;14.52;4.95;;;;;;;6.96;100.00;100117.88;5035200;28;20045;-63
2023/02/24 04:07:15;;;;;;;12.40;4.30;;;;;;;6.91;100.00;100123.50;5033658;28;20382;-62
2023/02/24 04:09:58;;;;;;;14.10;4.82;;;;;;;7.08;100.00;100121.25;5033233;28;20037;-61
2023/02/24 04:12:23;;;;;;;9.02;4.20;;;;;;;7.10;100.00;100117.53;5034010;28;20029;-63
2023/02/24 04:15:08;;;;;;;14.95;5.28;;;;;;;7.13;100.00;100117.25;5033811;28;20033;-63
2023/02/24 04:17:47;;;;;;;14.40;5.00;;;;;;;7.18;100.00;100122.97;5034497;28;20263;-64
2023/02/24 04:20:15;;;;;;;10.00;4.75;;;;;;;7.20;100.00;100122.84;5033498;28;20113;-61
2023/02/24 04:22:44;;;;;;;8.52;4.68;;;;;;;7.20;100.00;100118.41;5034303;28;20037;-61
2023/02/24 04:25:12;;;;;;;10.02;4.85;;;;;;;7.13;100.00;100117.25;5034158;28;20379;-63
2023/02/24 04:27:40;;;;;;;11.85;5.13;;;;;;;7.17;100.00;100115.19;5033182;28;20220;-63
2023/02/24 04:30:09;;;;;;;13.57;4.38;;;;;;;7.13;100.00;100108.53;5029981;28;20072;-62
2023/02/24 04:32:35;;;;;;;16.45;5.80;;;;;;;7.13;100.00;100106.72;5033859;28;20032;-61
2023/02/24 04:35:05;;;;;;;12.52;5.22;;;;;;;7.13;100.00;100109.38;5034684;28;20071;-64
2023/02/24 04:37:34;;;;;;;11.93;4.45;;;;;;;7.16;100.00;100103.00;5033061;28;20140;-64
2023/02/24 04:40:00;;;;;;;10.35;5.35;;;;;;;7.26;100.00;100101.25;5034644;28;20139;-63
2023/02/24 04:42:26;;;;;;;8.45;5.57;;;;;;;7.33;100.00;100105.03;5033286;28;20039;-61
2023/02/24 04:44:52;;;;;;;10.60;5.15;;;;;;;7.28;100.00;100105.44;5033737;28;20112;-62
2023/02/24 04:47:18;;;;;;;11.07;5.10;;;;;;;7.25;100.00;100094.31;5033683;28;20033;-64
2023/02/24 04:49:44;;;;;;;14.00;5.05;;;;;;;7.25;100.00;100097.78;5034249;28;20041;-64
2023/02/24 04:52:10;;;;;;;10.98;5.88;;;;;;;7.29;100.00;100095.75;5034508;28;20222;-63
2023/02/24 04:54:37;;;;;;;10.20;4.75;;;;;;;7.53;100.00;100104.16;5033593;28;20041;-61
2023/02/24 04:57:05;;;;;;;13.75;6.10;;;;;;;7.50;100.00;100103.59;5035057;28;20029;-61
2023/02/24 04:59:31;;;;;;;14.38;6.22;;;;;;;7.57;100.00;100102.91;5030261;28;20029;-60
2023/02/24 05:02:00;;;;;;;16.98;5.22;;;;;;;7.69;100.00;100099.19;5033864;28;20037;-61
2023/02/24 05:04:28;;;;;;;13.43;5.05;;;;;;;7.52;100.00;100097.22;5033421;28;20032;-63
2023/02/24 05:06:56;;;;;;;14.48;5.47;;;;;;;7.43;100.00;100098.00;5032797;28;20442;-61
2023/02/24 05:09:22;;;;;;;11.95;4.95;;;;;;;7.50;100.00;100098.31;5033696;28;20339;-63
2023/02/24 05:11:50;;;;;;;9.75;4.53;;;;;;;7.61;100.00;100103.47;5033775;28;20073;-64
2023/02/24 05:14:19;;;;;;;19.40;5.95;;;;;;;7.53;100.00;100096.25;5033164;28;20386;-62
2023/02/24 05:16:47;;;;;;;12.30;4.88;;;;;;;7.59;100.00;100095.72;5032993;28;20041;-64
2023/02/24 05:22:01;;;;;;;12.32;5.32;;;;;;;7.63;100.00;100097.09;5041145;28;20075;-63
2023/02/24 05:24:28;;;;;;;14.02;4.90;;;;;;;7.51;100.00;100092.91;5043653;28;20039;-63
2023/02/24 05:27:02;;;;;;;14.27;4.38;;;;;;;7.61;100.00;100103.47;5049308;28;20082;-64
2023/02/24 05:29:31;;;;;;;14.90;5.53;;;;;;;7.78;100.00;100096.72;5038519;28;20041;-61
2023/02/24 05:31:58;;;;;;;9.93;4.65;;;;;;;7.72;100.00;100102.53;5046238;28;20200;-60
2023/02/24 05:34:25;;;;;;;12.52;5.05;;;;;;;7.83;100.00;100099.78;5051572;28;20067;-62
2023/02/24 05:36:52;;;;;;;14.35;5.10;;;;;;;7.88;100.00;100103.69;5051718;28;20051;-65
2023/02/24 05:39:18;;;;;;;10.63;5.35;;;;;;;7.93;100.00;100103.28;5040092;28;20037;-63
2023/02/24 05:41:48;;;;;;;12.18;4.82;;;;;;;8.03;100.00;100106.75;5049322;28;20071;-61
2023/02/24 05:44:15;;;;;;;9.13;4.28;;;;;;;7.98;100.00;100103.69;5029286;28;20094;-63
2023/02/24 05:46:45;;;;;;;7.70;4.10;;;;;;;7.80;100.00;100105.34;5046290;28;20033;-64
2023/02/24 05:49:22;;;;;;;10.40;4.28;;;;;;;7.68;100.00;100096.69;5045599;28;20407;-61
2023/02/24 05:51:53;;;;;;;9.23;4.97;;;;;;;7.49;100.00;100102.75;5040465;28;20283;-64
2023/02/24 05:54:21;;;;;;;12.00;5.15;;;;;;;7.45;100.00;100103.97;5041956;28;20377;-63
2023/02/24 05:56:47;;;;;;;12.68;4.55;;;;;;;7.37;100.00;100101.19;5045287;28;20283;-63
2023/02/24 05:59:16;;;;;;;12.40;4.68;;;;;;;7.33;100.00;100100.59;5039456;28;20037;-63
2023/02/24 06:01:45;;;;;;;12.80;5.32;;;;;;;7.35;100.00;100111.84;5044886;28;20041;-61
2023/02/24 06:04:19;;;;;;;12.80;6.15;;;;;;;7.36;100.00;100105.63;5045773;28;20033;-61
2023/02/24 06:06:46;;;;;;;15.18;5.68;;;;;;;7.43;100.00;100110.34;5040357;28;20056;-63
2023/02/24 06:09:13;;;;;;;14.95;6.35;;;;;;;7.59;100.00;100115.94;5044877;28;20053;-61
2023/02/24 06:11:39;;;;;;;13.52;6.35;;;;;;;7.59;100.00;100108.88;5041861;28;20128;-65
2023/02/24 06:14:06;;;;;;;16.67;5.88;;;;;;;7.74;100.00;100119.88;5044141;28;20057;-63
2023/02/24 06:16:39;;;;;;;10.90;4.97;;;;;;;7.67;100.00;100110.84;5044324;28;20036;-61
2023/02/24 06:19:07;;;;;;;10.32;5.00;;;;;;;7.45;100.00;100109.25;5050690;28;20751;-63
2023/02/24 06:21:40;;;;;;;11.18;4.60;;;;;;;7.53;100.00;100109.41;5046031;28;20065;-62
2023/02/24 06:24:09;;;;;;;10.17;4.67;;;;;;;7.67;100.00;100102.94;5045288;28;20220;-63
2023/02/24 06:26:35;;;;;;;11.38;5.68;;;;;;;7.73;100.00;100117.38;5042429;28;20892;-61
2023/02/24 06:29:03;;;;;;;13.65;4.95;;;;;;;7.62;100.00;100108.63;5043436;28;20339;-63
2023/02/24 06:31:28;;;;;;;12.82;5.60;;;;;;;7.62;100.00;100113.88;5051580;28;20224;-61
2023/02/24 06:33:54;;;;;;;13.23;5.18;;;;;;;7.60;100.00;100107.91;5039607;28;20073;-65
2023/02/24 06:36:21;;;;;;;10.52;4.85;;;;;;;7.61;100.00;100111.38;5039295;28;20087;-64
2023/02/24 06:38:48;;;;;;;12.82;5.43;;;;;;;7.54;100.00;100105.81;5038424;28;20079;-63
2023/02/24 06:41:14;;;;;;;13.02;5.10;;;;;;;7.65;100.00;100108.34;5037812;28;20536;-63
2023/02/24 06:43:45;;;;;;;9.60;4.85;;;;;;;7.78;100.00;100113.38;5037414;28;20037;-64
2023/02/24 06:46:13;;;;;;;14.55;5.35;;;;;;;7.78;100.00;100097.56;5039098;28;20212;-61
2023/02/24 06:48:38;;;;;;;10.80;6.07;;;;;;;7.58;100.00;100098.47;5037948;28;20033;-61
2023/02/24 06:51:09;;;;;;;7.28;4.47;;;;;;;7.57;100.00;100102.06;5038201;28;20079;-64
2023/02/24 06:53:41;;;;;;;9.00;4.30;;;;;;;7.54;100.00;100095.28;5037373;28;20036;-62
2023/02/24 06:56:14;;;;;;;12.27;4.75;;;;;;;7.55;100.00;100089.03;5038765;28;20037;-63
2023/02/24 06:58:43;;;;;;;13.00;5.10;;;;;;;7.51;100.00;100077.09;5038689;28;20032;-63
2023/02/24 07:01:18;;;;;;;12.25;5.20;;;;;;;7.69;100.00;100083.38;5037356;28;20091;-63
2023/02/24 07:06:33;;;;;;;13.93;5.97;;;;;;;7.74;100.00;100084.78;5035930;28;20107;-64
2023/02/24 07:09:00;;;;;;;7.63;4.20;;;;;;;7.80;100.00;100082.44;5037165;28;20032;-61
2023/02/24 07:11:27;;;;;;;13.43;6.00;;;;;;;7.74;100.00;100088.25;5039586;28;20299;-62
2023/02/24 07:13:53;;;;;;;13.00;5.45;;;;;;;7.62;100.00;100078.78;5040247;28;20029;-63
2023/02/24 07:16:23;;;;;;;12.50;5.20;;;;;;;7.69;100.00;100082.56;5039044;28;20036;-61
2023/02/24 07:18:53;;;;;;;14.65;5.03;;;;;;;7.94;100.00;100068.84;5040044;28;20041;-60
2023/02/24 07:21:19;;;;;;;12.93;5.40;;;;;;;8.15;100.00;100066.09;5038131;28;20055;-60
2023/02/24 07:23:48;;;;;;;8.68;4.60;;;;;;;8.00;100.00;100072.75;5038957;28;20041;-61
2023/02/24 07:26:18;;;;;;;15.05;5.43;;;;;;;7.81;100.00;100070.91;5036977;28;20225;-60
2023/02/24 07:28:46;;;;;;;10.20;4.63;;;;;;;7.86;100.00;100079.25;5028477;28;20044;-62
2023/02/24 07:31:16;;;;;;;16.17;5.55;;;;;;;8.08;100.00;100069.41;5038754;28;20079;-63
2023/02/24 07:33:45;;;;;;;13.48;5.80;;;;;;;8.35;100.00;100068.78;5036428;28;20035;-63
2023/02/24 07:36:14;;;;;;;13.98;6.53;;;;;;;8.64;98.81;100067.78;5037442;28;20316;-63
2023/02/24 07:38:44;;;;;;;13.77;5.38;;;;;;;8.76;98.65;100081.66;5036697;28;20044;-63
2023/02/24 07:41:12;;;;;;;12.20;5.13;;;;;;;8.96;97.06;100072.69;5038261;28;20045;-61
2023/02/24 07:43:39;;;;;;;15.55;6.28;;;;;;;9.04;94.94;100074.63;5037780;28;20056;-60
2023/02/24 07:46:10;;;;;;;15.73;5.80;;;;;;;8.64;97.03;100070.41;5037756;28;20299;-61
2023/02/24 07:48:36;;;;;;;11.43;5.20;;;;;;;8.68;96.83;100067.50;5037783;28;20041;-61
2023/02/24 07:51:06;;;;;;;14.13;5.70;;;;;;;8.77;95.89;100071.94;5036000;28;20033;-64
2023/02/24 07:53:32;;;;;;;12.18;5.60;;;;;;;8.69;96.16;100079.72;5037996;28;20101;-60
2023/02/24 07:55:57;;;;;;;19.08;6.82;;;;;;;8.60;96.22;100068.22;5035474;28;20071;-63
2023/02/24 07:58:23;;;;;;;14.93;6.05;;;;;;;8.88;95.90;100062.03;5037117;28;20041;-63
2023/02/24 08:00:58;;;;;;;16.20;6.60;;;;;;;9.04;94.44;100066.69;5035612;28;20030;-60
2023/02/24 08:03:28;;;;;;;20.85;8.13;;;;;;;9.12;94.67;100060.69;5037301;28;20057;-64
2023/02/24 08:06:11;;;;;;;17.65;8.27;;;;;;;9.06;94.15;100059.47;5036281;28;20053;-64
2023/02/24 08:08:56;;;;;;;18.00;8.43;;;;;;;9.28;93.79;100055.63;5035173;28;20091;-64
2023/02/24 08:11:33;;;;;;;24.58;8.15;;;;;;;9.54;92.80;100053.97;5038571;28;20068;-61
2023/02/24 08:14:01;;;;;;;14.23;6.47;;;;;;;9.80;91.82;100058.56;5037401;28;20068;-63
2023/02/24 08:16:38;;;;;;;16.88;7.22;;;;;;;10.02;90.98;100052.00;5037152;28;20096;-66
2023/02/24 08:19:19;;;;;;;27.52;9.75;;;;;;;10.05;89.67;100057.00;5038699;28;20054;-61
2023/02/24 08:21:50;;;;;;;23.90;9.60;;;;;;;10.22;88.58;100061.47;5036897;28;20244;-63
2023/02/24 08:24:18;;;;;;;23.15;10.45;;;;;;;10.31;89.01;100059.72;5036443;28;20029;-65
2023/02/24 08:27:04;;;;;;;20.88;8.68;;;;;;;10.32;87.99;100061.41;5037550;28;20060;-64
2023/02/24 08:29:59;;;;;;;23.05;9.57;;;;;;;10.31;88.84;100059.72;5036462;28;20049;-67
2023/02/24 08:32:32;;;;;;;22.88;10.25;;;;;;;10.42;87.82;100067.47;5033957;28;20387;-63
2023/02/24 08:35:01;;;;;;;27.48;10.90;;;;;;;10.46;87.79;100067.00;5033826;28;20388;-65
2023/02/24 08:37:32;;;;;;;23.42;10.25;;;;;;;10.49;87.39;100074.66;5036727;28;20038;-65
2023/02/24 08:39:58;;;;;;;28.00;10.73;;;;;;;10.39;88.11;100068.56;5032133;28;20522;-65
2023/02/24 08:42:29;;;;;;;28.55;13.13;;;;;;;10.34;88.16;100065.56;5038465;28;20022;-65
2023/02/24 08:45:01;;;;;;;24.30;11.75;;;;;;;10.48;87.49;100064.22;5036266;28;20739;-65
2023/02/24 08:47:34;;;;;;;35.83;13.23;;;;;;;10.47;87.36;100063.38;5036508;28;20266;-65
2023/02/24 08:50:01;;;;;;;37.33;12.77;;;;;;;10.53;86.56;100057.47;5037036;28;20065;-65
2023/02/24 08:52:33;;;;;;;31.55;11.65;;;;;;;10.55;86.35;100055.50;5037263;28;20037;-64
2023/02/24 08:55:00;;;;;;;24.02;11.52;;;;;;;10.62;86.05;100053.06;5035862;28;20348;-62
2023/02/24 08:57:26;;;;;;;34.65;13.65;;;;;;;10.70;85.79;100047.00;5036539;28;20375;-65
2023/02/24 08:59:56;;;;;;;46.10;18.33;;;;;;;10.70;85.75;100044.34;5037961;28;20064;-62
2023/02/24 09:02:23;;;;;;;46.67;16.88;;;;;;;10.68;85.33;100043.66;5032281;28;20068;-62
2023/02/24 09:04:59;;;;;;;32.75;14.20;;;;;;;10.76;85.61;100044.53;5037110;28;20320;-65
2023/02/24 09:07:34;;;;;;;32.53;13.55;;;;;;;10.91;84.29;100042.16;5035894;28;20060;-66
2023/02/24 09:10:01;;;;;;;33.78;13.50;;;;;;;10.98;84.86;100040.53;5033372;28;20450;-65
2023/02/24 09:12:28;;;;;;;34.58;13.98;;;;;;;11.17;84.02;100036.81;5035007;28;20056;-63
2023/02/24 09:14:57;;;;;;;35.03;14.38;;;;;;;11.36;83.64;100035.75;5036216;28;20343;-60
2023/02/24 09:23:18;;;;;;;38.53;15.00;;;;;;;11.41;82.24;100023.66;5033931;28;20125;-60
2023/02/24 09:25:53;;;;;;;35.08;13.55;;;;;;;11.03;84.48;100019.69;5033438;28;20099;-62
2023/02/24 09:28:23;;;;;;;36.42;14.95;;;;;;;10.63;85.64;100014.16;5036207;28;20029;-65
2023/02/24 09:30:53;;;;;;;31.05;14.00;;;;;;;10.74;85.72;100019.22;5035394;28;20058;-65
2023/02/24 09:33:35;;;;;;;31.05;14.27;;;;;;;10.63;86.78;100006.22;5036492;28;20128;-66
2023/02/24 09:36:18;;;;;;;33.90;15.02;;;;;;;11.00;85.45;100005.94;5035410;28;20048;-65
2023/02/24 09:41:56;;;;;;;29.35;13.90;;;;;;;11.36;83.46;99991.50;5037464;28;20132;-63
2023/02/24 09:44:43;;;;;;;31.50;14.32;;;;;;;11.18;84.74;99996.91;5035901;28;20056;-61
2023/02/24 09:47:18;;;;;;;24.75;12.48;;;;;;;11.35;84.27;99989.00;5035737;28;20029;-60
2023/02/24 09:49:55;;;;;;;29.08;13.52;;;;;;;11.41;83.81;99983.91;5035774;28;20080;-61
2023/02/24 09:52:38;;;;;;;27.77;12.88;;;;;;;11.35;83.58;99981.88;5036891;28;20033;-63
2023/02/24 09:55:25;;;;;;;35.13;12.73;;;;;;;11.32;84.67;99982.22;5036315;28;20347;-64
2023/02/24 09:58:28;;;;;;;30.25;12.95;;;;;;;11.63;83.61;99971.88;5035361;28;20120;-60
2023/02/24 10:01:19;;;;;;;24.10;11.75;;;;;;;11.81;81.11;99969.09;5034620;28;20466;-63
2023/02/24 10:04:09;;;;;;;34.15;13.45;;;;;;;11.74;82.20;99960.13;5036242;28;20119;-63
2023/02/24 10:06:46;;;;;;;28.80;12.57;;;;;;;11.45;82.82;99963.22;5037693;28;20045;-60
2023/02/24 10:09:38;;;;;;;28.38;12.43;;;;;;;11.42;83.30;99959.03;5039258;28;20045;-61
2023/02/24 10:12:18;;;;;;;28.75;13.73;;;;;;;11.13;84.24;99961.28;5033565;28;20055;-61
2023/02/24 10:14:46;;;;;;;34.15;14.50;;;;;;;11.20;85.41;99955.16;5039256;28;20125;-61
2023/02/24 10:17:22;;;;;;;29.90;13.23;;;;;;;11.30;83.28;99951.56;5037928;28;20036;-63
2023/02/24 10:19:59;;;;;;;26.25;13.13;;;;;;;11.23;83.33;99946.06;5038488;28;20319;-63
2023/02/24 10:22:39;;;;;;;29.52;13.65;;;;;;;11.41;83.25;99927.38;5040239;28;20104;-64
2023/02/24 10:25:23;;;;;;;29.75;14.38;;;;;;;11.65;81.80;99916.00;5037272;28;20048;-64
2023/02/24 10:28:19;;;;;;;30.13;13.80;;;;;;;11.69;82.64;99909.38;5038791;28;20104;-63
2023/02/24 10:31:23;;;;;;;31.95;13.90;;;;;;;11.80;82.46;99899.31;5034918;28;20042;-61
2023/02/24 10:33:52;;;;;;;26.58;13.18;;;;;;;11.88;82.16;99890.50;5038058;28;20041;-63
2023/02/24 10:36:25;;;;;;;26.95;12.70;;;;;;;12.11;81.94;99893.31;5036738;28;20045;-61
2023/02/24 10:38:54;;;;;;;25.30;13.40;;;;;;;12.20;80.93;99889.63;5035481;28;20034;-61
2023/02/24 10:41:27;;;;;;;28.80;13.57;;;;;;;12.36;80.74;99892.25;5037919;28;20041;-61
2023/02/24 10:43:57;;;;;;;27.60;12.68;;;;;;;12.36;80.04;99886.13;5039887;28;20082;-62
2023/02/24 10:46:25;;;;;;;26.15;12.30;;;;;;;12.42;80.40;99883.63;5037808;28;20060;-61
2023/02/24 10:48:59;;;;;;;24.60;13.63;;;;;;;12.45;79.88;99883.28;5036836;28;20037;-65
2023/02/24 10:51:39;;;;;;;23.75;11.95;;;;;;;12.34;78.90;99874.84;5038132;28;20320;-63
2023/02/24 10:54:32;;;;;;;27.27;13.60;;;;;;;12.23;79.57;99872.53;5037652;28;20319;-60
2023/02/24 10:57:16;;;;;;;27.75;13.43;;;;;;;12.37;79.24;99877.16;5038472;28;20076;-61
2023/02/24 10:59:57;;;;;;;;;;;;;;;12.27;80.44;99868.56;5036514;28;20047;-61
2023/02/24 11:02:44;;;;;;;29.98;15.07;;;;;;;12.38;80.04;99862.88;5040806;28;19921;-61
2023/02/24 11:11:06;;;;;;;35.92;15.35;;;;;;;12.45;80.04;99846.09;5032675;28;20084;-63
2023/02/24 11:19:01;;;;;;;30.80;16.07;;;;;;;12.65;79.31;99835.91;5034424;28;20032;-60
2023/02/24 11:21:27;;;;;;;26.48;14.95;;;;;;;12.65;79.04;99835.09;5035910;28;20563;-61
2023/02/24 11:23:57;;;;;;;34.60;15.43;;;;;;;12.68;77.94;99835.56;5034386;28;20034;-61
2023/02/24 11:26:22;;;;;;;29.10;15.20;;;;;;;12.73;77.61;99829.72;5034784;28;20041;-62
2023/02/24 11:29:06;;;;;;;34.92;17.00;;;;;;;12.57;78.35;99827.97;5036397;28;20045;-63
2023/02/24 11:32:15;;;;;;;31.48;14.98;;;;;;;12.64;77.26;99818.31;5032858;28;20052;-63
2023/02/24 11:34:48;;;;;;;31.33;15.05;;;;;;;12.72;77.22;99812.13;5032806;28;20056;-63
2023/02/24 11:37:22;;;;;;;30.52;14.63;;;;;;;12.52;78.45;99809.06;5035889;28;20041;-62
2023/02/24 11:39:58;;;;;;;27.92;15.00;;;;;;;12.46;79.21;99799.13;5031934;28;20335;-61
2023/02/24 11:42:36;;;;;;;31.23;14.52;;;;;;;12.45;79.13;99792.97;5034696;28;20036;-61
2023/02/24 11:45:43;;;;;;;31.08;15.18;;;;;;;12.43;78.87;99792.31;5035872;28;20048;-61
2023/02/24 11:48:18;;;;;;;30.40;13.63;;;;;;;12.40;78.97;99791.84;5034642;28;20049;-63
2023/02/24 11:50:56;;;;;;;23.52;13.00;;;;;;;12.51;78.15;99782.69;5034573;28;20030;-61
2023/02/24 11:53:52;;;;;;;30.33;15.75;;;;;;;12.42;79.09;99781.88;5034095;28;20243;-61
2023/02/24 11:56:35;;;;;;;29.90;13.95;;;;;;;12.57;78.90;99771.38;5032859;28;20319;-61
2023/02/24 11:59:11;;;;;;;41.40;18.87;;;;;;;12.51;78.90;99778.22;5035059;28;20282;-62
2023/02/24 12:01:46;;;;;;;30.33;14.90;;;;;;;12.51;78.69;99780.03;5034816;28;20045;-63
2023/02/24 12:04:23;;;;;;;39.92;19.10;;;;;;;12.53;79.34;99773.56;5035683;28;20232;-61
2023/02/24 12:07:01;;;;;;;31.40;14.48;;;;;;;12.69;78.32;99775.28;5034177;28;20065;-63
2023/02/24 12:09:35;;;;;;;34.72;16.02;;;;;;;12.79;78.86;99768.75;5031109;28;20080;-60
2023/02/24 12:12:10;;;;;;;31.40;14.98;;;;;;;12.85;78.92;99767.22;5034762;28;20083;-61